createdAt,value
2023-05-15T00:01:59.858Z,8.10
2023-05-15T00:04:27.016Z,5.50
2023-05-15T00:06:53.892Z,5.00
2023-05-15T00:09:20.530Z,4.47
2023-05-15T00:11:47.211Z,4.50
2023-05-15T00:14:13.907Z,4.00
2023-05-15T00:16:41.105Z,4.43
2023-05-15T00:19:07.972Z,3.90
2023-05-15T00:21:34.658Z,4.43
2023-05-15T00:24:01.393Z,4.53
2023-05-15T00:26:28.146Z,4.10
2023-05-15T00:28:54.929Z,5.00
2023-05-15T00:31:21.677Z,4.03
2023-05-15T00:33:48.587Z,4.30
2023-05-15T00:36:15.455Z,4.40
2023-05-15T00:38:42.147Z,4.27
2023-05-15T00:41:11.421Z,4.03
2023-05-15T00:43:40.949Z,5.63
2023-05-15T00:46:08.171Z,4.90
2023-05-15T00:48:35.572Z,6.23
2023-05-15T00:51:02.410Z,5.93
2023-05-15T00:53:29.207Z,5.87
2023-05-15T00:55:59.441Z,6.20
2023-05-15T00:58:28.753Z,7.40
2023-05-15T01:00:56.408Z,6.40
2023-05-15T01:03:23.850Z,5.93
2023-05-15T01:05:51.631Z,6.10
2023-05-15T01:08:39.007Z,6.57
2023-05-15T01:11:08.057Z,6.63
2023-05-15T01:13:34.953Z,5.60
2023-05-15T01:16:01.759Z,5.73
2023-05-15T01:18:32.430Z,7.00
2023-05-15T01:21:03.025Z,7.40
2023-05-15T01:24:07.952Z,6.50
2023-05-15T01:26:54.150Z,5.73
2023-05-15T01:29:47.822Z,6.13
2023-05-15T01:32:49.713Z,6.00
2023-05-15T01:35:31.259Z,6.80
2023-05-15T01:38:21.255Z,5.80
2023-05-15T01:40:53.180Z,5.70
2023-05-15T01:43:28.156Z,5.93
2023-05-15T01:45:57.188Z,6.17
2023-05-15T01:48:28.358Z,5.80
2023-05-15T01:50:58.160Z,5.73
2023-05-15T01:53:26.729Z,6.60
2023-05-15T01:55:53.794Z,5.47
2023-05-15T01:58:21.229Z,5.10
2023-05-15T02:00:49.421Z,6.13
2023-05-15T02:03:16.289Z,6.40
2023-05-15T02:05:43.195Z,5.90
2023-05-15T02:08:11.185Z,5.97
2023-05-15T02:10:38.764Z,5.43
2023-05-15T02:13:08.286Z,5.60
2023-05-15T02:15:36.582Z,6.07
2023-05-15T02:18:03.698Z,6.20
2023-05-15T02:20:30.595Z,7.10
2023-05-15T02:22:57.451Z,6.73
2023-05-15T02:25:38.677Z,6.53
2023-05-15T02:28:10.614Z,7.47
2023-05-15T02:30:40.584Z,6.73
2023-05-15T02:33:25.772Z,6.27
2023-05-15T02:36:03.637Z,6.23
2023-05-15T02:38:35.477Z,7.03
2023-05-15T02:41:04.011Z,6.70
2023-05-15T02:43:30.909Z,6.77
2023-05-15T02:45:59.314Z,6.93
2023-05-15T02:48:26.633Z,10.60
2023-05-15T02:50:53.969Z,7.97
2023-05-15T02:53:20.960Z,6.97
2023-05-15T02:55:47.996Z,8.43
2023-05-15T02:58:14.916Z,8.63
2023-05-15T03:00:41.657Z,7.10
2023-05-15T03:03:08.332Z,8.37
2023-05-15T03:05:35.050Z,8.47
2023-05-15T03:08:01.758Z,9.70
2023-05-15T03:10:28.486Z,7.70
2023-05-15T03:12:58.254Z,10.13
2023-05-15T03:15:25.570Z,9.60
2023-05-15T03:17:52.471Z,10.40
2023-05-15T03:20:19.234Z,10.00
2023-05-15T03:22:45.955Z,9.70
2023-05-15T03:25:13.337Z,10.90
2023-05-15T03:27:40.022Z,10.97
2023-05-15T03:30:07.349Z,11.00
2023-05-15T03:32:34.167Z,11.70
2023-05-15T03:35:01.301Z,11.40
2023-05-15T03:37:28.479Z,11.20
2023-05-15T03:39:55.285Z,11.13
2023-05-15T03:42:23.657Z,12.93
2023-05-15T03:44:50.905Z,13.97
2023-05-15T03:47:18.326Z,12.93
2023-05-15T03:49:46.205Z,11.80
2023-05-15T03:52:13.273Z,12.60
2023-05-15T03:54:40.470Z,11.93
2023-05-15T03:57:07.999Z,12.83
2023-05-15T03:59:34.736Z,12.70
2023-05-15T04:02:04.715Z,11.70
2023-05-15T04:04:32.694Z,14.27
2023-05-15T04:06:59.713Z,15.33
2023-05-15T04:09:26.455Z,12.80
2023-05-15T04:11:53.189Z,14.77
2023-05-15T04:14:20.120Z,14.77
2023-05-15T04:16:46.804Z,15.27
2023-05-15T04:19:14.031Z,14.37
2023-05-15T04:21:40.804Z,15.37
2023-05-15T04:24:08.373Z,17.00
2023-05-15T04:26:35.115Z,17.10
2023-05-15T04:29:04.483Z,16.73
2023-05-15T04:31:32.111Z,14.90
2023-05-15T04:33:58.917Z,14.80
2023-05-15T04:36:25.914Z,14.60
2023-05-15T04:38:52.587Z,14.90
2023-05-15T04:41:19.348Z,15.30
2023-05-15T04:43:46.460Z,13.83
2023-05-15T04:46:13.130Z,13.40
2023-05-15T04:48:39.900Z,14.30
2023-05-15T04:51:07.523Z,12.57
2023-05-15T04:53:34.244Z,13.00
2023-05-15T04:56:00.894Z,13.83
2023-05-15T04:58:27.578Z,12.80
2023-05-15T05:00:54.322Z,12.93
2023-05-15T05:03:21.008Z,13.60
2023-05-15T05:05:47.688Z,12.57
2023-05-15T05:08:14.361Z,14.00
2023-05-15T05:10:41.048Z,12.60
2023-05-15T05:13:07.665Z,13.00
2023-05-15T05:15:34.432Z,12.63
2023-05-15T05:18:01.333Z,12.30
2023-05-15T05:20:28.121Z,14.17
2023-05-15T05:22:54.884Z,13.33
2023-05-15T05:25:21.656Z,14.07
2023-05-15T05:27:48.377Z,14.87
2023-05-15T05:30:15.317Z,14.93
2023-05-15T05:32:42.099Z,14.20
2023-05-15T05:35:09.293Z,13.37
2023-05-15T05:37:37.525Z,13.30
2023-05-15T05:40:06.605Z,15.37
2023-05-15T05:42:33.320Z,15.23
2023-05-15T05:45:00.156Z,13.80
2023-05-15T05:47:26.894Z,14.27
2023-05-15T05:49:55.063Z,13.50
2023-05-15T05:52:21.788Z,12.80
2023-05-15T05:54:48.654Z,15.40
2023-05-15T05:57:15.834Z,13.70
2023-05-15T05:59:42.662Z,12.00
2023-05-15T06:02:09.874Z,13.07
2023-05-15T06:04:36.876Z,12.27
2023-05-15T06:07:03.861Z,13.70
2023-05-15T06:09:30.594Z,12.40
2023-05-15T06:11:57.269Z,14.20
2023-05-15T06:14:24.077Z,13.20
2023-05-15T06:16:51.240Z,13.37
2023-05-15T06:19:18.013Z,12.43
2023-05-15T06:21:44.794Z,13.00
2023-05-15T06:24:11.468Z,12.70
2023-05-15T06:26:38.339Z,11.23
2023-05-15T06:29:05.062Z,12.90
2023-05-15T06:31:32.163Z,13.80
2023-05-15T06:33:59.015Z,13.00
2023-05-15T06:36:25.687Z,12.37
2023-05-15T06:38:52.365Z,12.20
2023-05-15T06:41:19.033Z,13.67
2023-05-15T06:43:45.671Z,12.20
2023-05-15T06:46:12.453Z,12.70
2023-05-15T06:48:39.158Z,12.33
2023-05-15T06:51:05.891Z,10.03
2023-05-15T06:53:32.644Z,10.10
2023-05-15T06:55:59.384Z,10.03
2023-05-15T06:58:26.031Z,10.33
2023-05-15T07:00:54.212Z,10.00
2023-05-15T07:03:22.785Z,10.30
2023-05-15T07:05:49.544Z,10.87
2023-05-15T07:08:16.223Z,10.67
2023-05-15T07:10:42.912Z,10.30
2023-05-15T07:13:09.627Z,9.80
2023-05-15T07:15:36.277Z,10.10
2023-05-15T07:18:03.140Z,10.37
2023-05-15T07:20:32.475Z,10.80
2023-05-15T07:23:01.162Z,9.83
2023-05-15T07:25:28.210Z,9.57
2023-05-15T07:27:55.857Z,11.00
2023-05-15T07:30:23.229Z,9.00
2023-05-15T07:32:50.280Z,9.03
2023-05-15T07:35:17.089Z,9.20
2023-05-15T07:37:43.942Z,16.10
2023-05-15T07:40:11.011Z,9.50
2023-05-15T07:42:39.572Z,9.17
2023-05-15T07:45:07.446Z,9.10
2023-05-15T07:47:35.611Z,8.93
2023-05-15T07:50:03.042Z,9.70
2023-05-15T07:52:29.790Z,8.20
2023-05-15T07:54:56.470Z,8.10
2023-05-15T07:57:23.168Z,10.33
2023-05-15T07:59:49.826Z,8.53
2023-05-15T08:02:16.587Z,8.50
2023-05-15T08:04:43.440Z,8.17
2023-05-15T08:07:10.301Z,7.80
2023-05-15T08:09:36.982Z,8.40
2023-05-15T08:12:21.344Z,7.90
2023-05-15T08:14:52.474Z,7.57
2023-05-15T08:17:19.577Z,7.53
2023-05-15T08:19:47.002Z,8.07
2023-05-15T08:22:14.313Z,6.83
2023-05-15T08:24:41.551Z,7.27
2023-05-15T08:27:08.912Z,7.97
2023-05-15T08:29:39.239Z,9.47
2023-05-15T08:32:07.744Z,7.07
2023-05-15T08:34:34.590Z,6.27
2023-05-15T08:37:01.713Z,7.30
2023-05-15T08:39:28.816Z,7.17
2023-05-15T08:42:19.085Z,6.40
2023-05-15T08:44:46.032Z,6.97
2023-05-15T08:47:14.527Z,6.70
2023-05-15T08:50:17.204Z,5.93
2023-05-15T08:52:47.706Z,6.00
2023-05-15T08:55:15.351Z,5.57
2023-05-15T08:57:42.523Z,7.03
2023-05-15T09:00:11.874Z,6.00
2023-05-15T09:02:39.422Z,4.80
2023-05-15T09:05:07.258Z,5.90
2023-05-15T09:07:34.686Z,5.20
2023-05-15T09:10:02.974Z,4.50
2023-05-15T09:12:34.398Z,5.20
2023-05-15T09:15:17.310Z,5.27
2023-05-15T09:17:45.436Z,5.17
2023-05-15T09:20:32.276Z,5.20
2023-05-15T09:23:00.731Z,5.00
2023-05-15T09:25:38.480Z,5.37
2023-05-15T09:28:10.782Z,5.30
2023-05-15T09:30:43.616Z,5.00
2023-05-15T09:33:10.751Z,4.20
2023-05-15T09:35:38.899Z,5.10
2023-05-15T09:38:12.741Z,4.63
2023-05-15T09:40:40.870Z,3.90
2023-05-15T09:43:11.350Z,3.83
2023-05-15T09:45:38.084Z,3.50
2023-05-15T09:48:06.419Z,6.40
2023-05-15T09:50:35.972Z,4.43
2023-05-15T09:53:02.992Z,3.30
2023-05-15T09:55:33.059Z,4.40
2023-05-15T09:58:08.166Z,3.93
2023-05-15T10:00:36.261Z,4.20
2023-05-15T10:03:17.153Z,4.27
2023-05-15T10:05:44.576Z,4.20
2023-05-15T10:08:12.647Z,3.97
2023-05-15T10:10:39.732Z,4.23
2023-05-15T10:13:08.407Z,4.20
2023-05-15T10:15:35.545Z,4.47
2023-05-15T10:18:04.998Z,4.30
2023-05-15T10:20:35.585Z,6.83
2023-05-15T10:23:05.063Z,4.13
2023-05-15T10:26:03.114Z,4.10
2023-05-15T10:28:31.451Z,6.93
2023-05-15T10:31:01.282Z,4.40
2023-05-15T10:33:29.579Z,4.90
2023-05-15T10:35:58.660Z,4.30
2023-05-15T10:38:26.512Z,4.67
2023-05-15T10:40:59.986Z,5.10
2023-05-15T10:43:35.271Z,5.83
2023-05-15T10:46:04.469Z,4.50
2023-05-15T10:48:32.681Z,5.10
2023-05-15T10:51:01.390Z,4.13
2023-05-15T10:53:28.548Z,6.03
2023-05-15T10:55:55.436Z,4.40
2023-05-15T10:58:24.003Z,5.00
2023-05-15T11:00:51.259Z,4.10
2023-05-15T11:03:47.887Z,4.93
2023-05-15T11:06:15.697Z,4.50
2023-05-15T11:08:45.124Z,6.30
2023-05-15T11:11:49.699Z,4.10
2023-05-15T11:14:16.396Z,4.63
2023-05-15T11:17:04.503Z,4.27
2023-05-15T11:19:36.496Z,4.43
2023-05-15T11:22:09.304Z,6.57
2023-05-15T11:24:49.582Z,5.30
2023-05-15T11:27:37.858Z,5.37
2023-05-15T11:30:15.351Z,4.53
2023-05-15T11:32:43.713Z,4.80
2023-05-15T11:35:39.413Z,3.93
2023-05-15T11:38:20.078Z,5.40
2023-05-15T11:40:48.482Z,4.47
2023-05-15T11:43:24.738Z,4.70
2023-05-15T11:46:11.307Z,3.90
2023-05-15T11:48:41.418Z,4.40
2023-05-15T11:51:16.937Z,5.13
2023-05-15T11:53:43.872Z,4.97
2023-05-15T11:56:18.463Z,3.93
2023-05-15T11:58:48.828Z,4.57
2023-05-15T12:01:15.498Z,4.27
2023-05-15T12:03:42.407Z,4.97
2023-05-15T12:06:10.898Z,4.33
2023-05-15T12:08:38.590Z,4.67
2023-05-15T12:11:05.764Z,4.33
2023-05-15T12:13:33.604Z,3.93
2023-05-15T12:16:02.137Z,3.97
2023-05-15T12:18:30.230Z,4.73
2023-05-15T12:20:56.910Z,5.97
2023-05-15T12:23:25.574Z,6.33
2023-05-15T12:25:57.669Z,5.00
2023-05-15T12:28:25.532Z,4.27
2023-05-15T12:30:53.240Z,4.30
2023-05-15T12:33:20.122Z,7.73
2023-05-15T12:36:05.973Z,11.10
2023-05-15T12:38:34.956Z,13.03
2023-05-15T12:41:01.702Z,9.13
2023-05-15T12:43:30.830Z,5.30
2023-05-15T12:45:58.245Z,3.90
2023-05-15T12:48:32.772Z,5.77
2023-05-15T12:51:09.161Z,5.63
2023-05-15T12:53:39.201Z,6.17
2023-05-15T12:56:06.256Z,7.20
2023-05-15T12:58:33.839Z,5.77
2023-05-15T13:01:03.170Z,6.40
2023-05-15T13:03:30.526Z,6.57
2023-05-15T13:05:57.397Z,8.70
2023-05-15T13:08:24.280Z,7.60
2023-05-15T13:10:57.817Z,5.60
2023-05-15T13:13:24.929Z,6.27
2023-05-15T13:15:51.713Z,5.03
2023-05-15T13:18:18.614Z,4.67
2023-05-15T13:20:51.665Z,4.77
2023-05-15T13:23:20.277Z,4.53
2023-05-15T13:25:47.524Z,6.43
2023-05-15T13:28:14.613Z,3.13
2023-05-15T13:30:42.104Z,3.00
2023-05-15T13:33:13.012Z,2.07
2023-05-15T13:35:41.171Z,2.77
2023-05-15T13:38:11.132Z,2.83
2023-05-15T13:40:38.813Z,2.20
2023-05-15T13:43:08.285Z,2.40
2023-05-15T13:45:35.669Z,4.77
2023-05-15T13:48:02.595Z,4.00
2023-05-15T13:50:29.494Z,4.03
2023-05-15T13:52:56.516Z,2.40
2023-05-15T13:55:23.594Z,8.60
2023-05-15T13:57:51.341Z,2.77
2023-05-15T14:00:18.864Z,3.00
2023-05-15T14:02:46.148Z,3.23
2023-05-15T14:05:14.597Z,2.93
2023-05-15T14:07:42.595Z,2.73
2023-05-15T14:10:10.148Z,3.33
2023-05-15T14:12:38.066Z,2.73
2023-05-15T14:15:05.298Z,2.27
2023-05-15T14:17:32.238Z,2.30
2023-05-15T14:19:59.073Z,2.27
2023-05-15T14:22:28.854Z,2.47
2023-05-15T14:24:55.634Z,3.67
2023-05-15T14:27:22.386Z,3.60
2023-05-15T14:29:49.496Z,2.10
2023-05-15T14:32:17.115Z,5.77
2023-05-15T14:34:44.351Z,5.87
2023-05-15T14:37:11.183Z,1.77
2023-05-15T14:39:37.920Z,2.47
2023-05-15T14:42:05.138Z,1.70
2023-05-15T14:44:32.308Z,2.43
2023-05-15T14:47:07.589Z,2.10
2023-05-15T14:49:34.891Z,2.83
2023-05-15T14:52:02.180Z,2.27
2023-05-15T14:54:29.176Z,2.77
2023-05-15T14:56:57.434Z,2.53
2023-05-15T14:59:25.429Z,5.17
2023-05-15T15:01:52.169Z,2.00
2023-05-15T15:04:19.032Z,1.90
2023-05-15T15:06:47.575Z,2.43
2023-05-15T15:09:14.331Z,2.93
2023-05-15T15:11:41.124Z,2.30
2023-05-15T15:14:07.778Z,2.30
2023-05-15T15:16:34.522Z,3.87
2023-05-15T15:19:01.254Z,1.73
2023-05-15T15:21:28.160Z,4.40
2023-05-15T15:23:55.288Z,2.20
2023-05-15T15:26:22.583Z,2.40
2023-05-15T15:28:49.316Z,2.07
2023-05-15T15:31:16.219Z,1.93
2023-05-15T15:33:42.946Z,2.20
2023-05-15T15:36:09.661Z,3.57
2023-05-15T15:38:36.642Z,2.10
2023-05-15T15:41:05.882Z,4.60
2023-05-15T15:43:32.574Z,3.07
2023-05-15T15:45:59.309Z,3.73
2023-05-15T15:48:26.028Z,2.17
2023-05-15T15:50:53.284Z,2.43
2023-05-15T15:53:21.307Z,4.17
2023-05-15T15:55:47.952Z,2.77
2023-05-15T15:58:15.093Z,1.90
2023-05-15T16:00:41.919Z,3.20
2023-05-15T16:03:08.677Z,3.70
2023-05-15T16:05:35.473Z,2.33
2023-05-15T16:08:02.170Z,2.40
2023-05-15T16:10:29.141Z,2.40
2023-05-15T16:12:56.927Z,2.70
2023-05-15T16:15:24.339Z,2.67
2023-05-15T16:17:53.479Z,2.60
2023-05-15T16:20:21.084Z,2.03
2023-05-15T16:22:47.851Z,3.97
2023-05-15T16:25:14.525Z,2.30
2023-05-15T16:27:41.160Z,2.00
2023-05-15T16:30:09.315Z,2.43
2023-05-15T16:32:36.303Z,2.17
2023-05-15T16:35:03.484Z,1.70
2023-05-15T16:37:30.207Z,2.30
2023-05-15T16:39:56.881Z,2.10
2023-05-15T16:42:23.548Z,3.30
2023-05-15T16:44:50.257Z,2.20
2023-05-15T16:47:16.938Z,2.37
2023-05-15T16:49:45.287Z,2.60
2023-05-15T16:52:13.104Z,1.90
2023-05-15T16:54:41.806Z,1.90
2023-05-15T16:57:08.545Z,2.17
2023-05-15T16:59:35.297Z,2.57
2023-05-15T17:02:02.116Z,2.03
2023-05-15T17:04:32.906Z,2.30
2023-05-15T17:06:59.920Z,2.80
2023-05-15T17:09:26.791Z,1.57
2023-05-15T17:11:53.456Z,1.70
2023-05-15T17:14:20.159Z,2.07
2023-05-15T17:16:47.299Z,2.60
2023-05-15T17:19:14.254Z,1.50
2023-05-15T17:21:40.956Z,1.97
2023-05-15T17:24:07.730Z,2.80
2023-05-15T17:26:34.472Z,1.83
2023-05-15T17:29:01.180Z,1.70
2023-05-15T17:31:29.466Z,1.90
2023-05-15T17:33:56.522Z,6.47
2023-05-15T17:36:23.247Z,2.10
2023-05-15T17:38:49.948Z,1.80
2023-05-15T17:41:16.626Z,1.50
2023-05-15T17:43:43.547Z,1.70
2023-05-15T17:46:10.285Z,1.70
2023-05-15T17:48:36.997Z,4.60
2023-05-15T17:51:03.705Z,2.50
2023-05-15T17:53:30.542Z,1.53
2023-05-15T17:55:57.376Z,1.70
2023-05-15T17:58:24.085Z,1.93
2023-05-15T18:00:53.929Z,2.00
2023-05-15T18:03:20.776Z,1.80
2023-05-15T18:05:47.710Z,4.00
2023-05-15T18:08:14.627Z,3.13
2023-05-15T18:10:41.330Z,4.20
2023-05-15T18:13:08.085Z,3.57
2023-05-15T18:15:37.706Z,2.30
2023-05-15T18:18:04.765Z,2.23
2023-05-15T18:20:31.590Z,3.20
2023-05-15T18:22:58.257Z,3.40
2023-05-15T18:25:25.022Z,5.67
2023-05-15T18:27:52.106Z,2.87
2023-05-15T18:30:19.186Z,3.27
2023-05-15T18:32:45.909Z,2.80
2023-05-15T18:35:12.693Z,2.80
2023-05-15T18:37:39.442Z,2.73
2023-05-15T18:40:06.735Z,3.20
2023-05-15T18:42:33.708Z,3.33
2023-05-15T18:45:00.772Z,4.40
2023-05-15T18:47:27.599Z,2.90
2023-05-15T18:49:54.712Z,2.97
2023-05-15T18:52:21.512Z,2.83
2023-05-15T18:54:48.666Z,2.90
2023-05-15T18:57:15.565Z,4.20
2023-05-15T18:59:42.282Z,3.77
2023-05-15T19:02:09.824Z,3.50
2023-05-15T19:04:36.701Z,6.83
2023-05-15T19:07:03.439Z,2.90
2023-05-15T19:09:30.105Z,3.83
2023-05-15T19:11:58.101Z,3.17
2023-05-15T19:14:24.841Z,3.37
2023-05-15T19:16:52.280Z,3.20
2023-05-15T19:19:19.202Z,6.10
2023-05-15T19:21:47.502Z,3.47
2023-05-15T19:24:14.231Z,2.90
2023-05-15T19:26:41.015Z,2.60
2023-05-15T19:29:07.667Z,3.03
2023-05-15T19:31:34.418Z,3.87
2023-05-15T19:34:01.562Z,2.90
2023-05-15T19:36:28.238Z,3.53
2023-05-15T19:38:55.052Z,3.73
2023-05-15T19:41:22.634Z,2.80
2023-05-15T19:43:50.944Z,2.77
2023-05-15T19:46:18.765Z,7.37
2023-05-15T19:48:45.940Z,3.67
2023-05-15T19:51:12.706Z,3.80
2023-05-15T19:53:39.515Z,3.33
2023-05-15T19:56:06.408Z,3.17
2023-05-15T19:58:33.132Z,3.20
2023-05-15T20:00:59.896Z,4.10
2023-05-15T20:03:32.708Z,3.77
2023-05-15T20:06:03.465Z,3.53
2023-05-15T20:08:30.615Z,3.47
2023-05-15T20:10:58.106Z,3.93
2023-05-15T20:13:24.957Z,3.80
2023-05-15T20:15:59.903Z,4.00
2023-05-15T20:18:28.506Z,3.00
2023-05-15T20:20:55.471Z,3.33
2023-05-15T20:23:22.485Z,3.83
2023-05-15T20:25:50.812Z,4.03
2023-05-15T20:28:17.881Z,3.40
2023-05-15T20:30:47.349Z,4.83
2023-05-15T20:33:14.592Z,3.40
2023-05-15T20:35:43.346Z,3.43
2023-05-15T20:38:10.537Z,7.63
2023-05-15T20:40:38.062Z,3.00
2023-05-15T20:43:05.308Z,3.17
2023-05-15T20:45:32.370Z,3.30
2023-05-15T20:47:59.400Z,2.93
2023-05-15T20:50:26.636Z,2.70
2023-05-15T20:52:53.631Z,4.50
2023-05-15T20:55:21.594Z,3.10
2023-05-15T20:57:49.202Z,3.30
2023-05-15T21:00:18.304Z,2.97
2023-05-15T21:02:46.861Z,5.93
2023-05-15T21:05:13.808Z,3.00
2023-05-15T21:07:41.007Z,3.23
2023-05-15T21:10:08.476Z,3.20
2023-05-15T21:12:35.366Z,2.93
2023-05-15T21:15:02.729Z,3.07
2023-05-15T21:17:29.627Z,3.40
2023-05-15T21:19:58.440Z,3.20
2023-05-15T21:22:25.164Z,3.10
2023-05-15T21:24:52.063Z,3.00
2023-05-15T21:27:19.027Z,2.90
2023-05-15T21:29:46.352Z,3.40
2023-05-15T21:32:13.082Z,3.77
2023-05-15T21:34:39.920Z,2.30
2023-05-15T21:37:06.731Z,3.13
2023-05-15T21:39:33.505Z,3.10
2023-05-15T21:42:00.269Z,2.67
2023-05-15T21:44:27.313Z,2.67
2023-05-15T21:46:54.077Z,4.00
2023-05-15T21:49:21.044Z,2.77
2023-05-15T21:51:47.786Z,3.43
2023-05-15T21:54:14.602Z,2.67
2023-05-15T21:56:41.488Z,3.70
2023-05-15T21:59:10.354Z,2.20
2023-05-15T22:01:37.130Z,2.83
2023-05-15T22:04:04.130Z,2.80
2023-05-15T22:06:31.704Z,2.70
2023-05-15T22:08:58.390Z,5.03
2023-05-15T22:11:25.856Z,2.50
2023-05-15T22:13:52.543Z,2.53
2023-05-15T22:16:19.353Z,3.73
2023-05-15T22:18:47.582Z,3.03
2023-05-15T22:21:15.010Z,6.93
2023-05-15T22:23:41.699Z,2.80
2023-05-15T22:26:08.426Z,2.80
2023-05-15T22:28:35.191Z,2.80
2023-05-15T22:31:02.122Z,4.30
2023-05-15T22:33:28.938Z,3.20
2023-05-15T22:35:55.887Z,3.17
2023-05-15T22:38:22.566Z,2.83
2023-05-15T22:40:50.945Z,3.13
2023-05-15T22:43:17.794Z,3.40
2023-05-15T22:45:44.916Z,2.83
2023-05-15T22:48:11.706Z,3.00
2023-05-15T22:50:38.501Z,2.73
2023-05-15T22:53:05.265Z,2.60
2023-05-15T22:55:31.974Z,4.00
2023-05-15T22:57:58.713Z,2.60
2023-05-15T23:00:25.940Z,3.53
2023-05-15T23:02:55.357Z,5.47
2023-05-15T23:05:22.629Z,3.87
2023-05-15T23:07:49.304Z,2.83
2023-05-15T23:10:15.950Z,3.23
2023-05-15T23:12:42.625Z,2.83
2023-05-15T23:15:12.674Z,2.60
2023-05-15T23:17:39.604Z,3.63
2023-05-15T23:20:06.974Z,2.50
2023-05-15T23:22:33.717Z,3.83
2023-05-15T23:25:00.784Z,2.93
2023-05-15T23:27:27.494Z,2.83
2023-05-15T23:29:54.204Z,2.87
2023-05-15T23:32:20.980Z,2.47
2023-05-15T23:34:47.746Z,2.93
2023-05-15T23:37:14.727Z,3.27
2023-05-15T23:39:41.428Z,2.87
2023-05-15T23:42:10.300Z,3.57
2023-05-15T23:44:36.948Z,3.33
2023-05-15T23:47:04.294Z,3.10
2023-05-15T23:49:32.882Z,3.13
2023-05-15T23:51:59.687Z,3.00
2023-05-15T23:54:26.333Z,3.33
2023-05-15T23:56:53.301Z,3.30
2023-05-15T23:59:19.933Z,2.80
